Fargo, North Dakota
Current Conditions -  °F | °C
As of 7:53 AM on Friday 19 Dec 2014 (Local Time) from KFAR Reporting Station
Haze Haze  
Wind Chill: -10°   Ceiling: 500
Heat Index: -4°   Visibility: 4mi
Dew Point: -6°   Wind: 13mph
Humidity: 88%   Direction: 160°SSE
Pressure: 30.09"   Gusts: NA
Location:  46.88°N, 96.78°W
Report Text: KFAR 191353Z 16011KT 4SM BR OVC005 M04/M06 A3009 RMK AO2 SLP205 T10391056
Loading
Personal Weather Stations






























Interactive Weather Map New forecast layout! Learn more

10-Day Weather Forecast

Advertisements
Track Severe Weather on mobile